createdAt,value
2018-09-18T00:00:53.615Z,9.70
2018-09-18T00:03:22.132Z,8.40
2018-09-18T00:05:50.678Z,9.30
2018-09-18T00:08:19.239Z,8.43
2018-09-18T00:10:47.830Z,8.60
2018-09-18T00:13:16.453Z,7.87
2018-09-18T00:15:44.961Z,7.67
2018-09-18T00:18:13.490Z,8.00
2018-09-18T00:20:42.025Z,7.27
2018-09-18T00:23:10.559Z,7.40
2018-09-18T00:25:39.109Z,7.20
2018-09-18T00:28:07.628Z,7.50
2018-09-18T00:30:36.106Z,6.83
2018-09-18T00:33:04.600Z,6.63
2018-09-18T00:35:33.111Z,7.63
2018-09-18T00:38:01.657Z,7.17
2018-09-18T00:40:30.142Z,6.47
2018-09-18T00:42:58.636Z,7.23
2018-09-18T00:45:27.184Z,7.40
2018-09-18T00:47:55.603Z,6.90
2018-09-18T00:50:24.096Z,7.33
2018-09-18T00:52:52.903Z,7.27
2018-09-18T00:55:21.434Z,6.90
2018-09-18T00:57:50.001Z,7.20
2018-09-18T01:00:18.485Z,6.30
2018-09-18T01:02:46.972Z,6.43
2018-09-18T01:05:15.472Z,6.40
2018-09-18T01:07:43.960Z,6.87
2018-09-18T01:10:12.451Z,6.40
2018-09-18T01:12:40.963Z,7.10
2018-09-18T01:15:09.613Z,6.17
2018-09-18T01:17:38.057Z,6.63
2018-09-18T01:20:06.653Z,7.17
2018-09-18T01:22:35.141Z,6.83
2018-09-18T01:25:03.666Z,6.93
2018-09-18T01:27:32.172Z,6.97
2018-09-18T01:30:00.674Z,6.90
2018-09-18T01:32:29.213Z,6.93
2018-09-18T01:34:57.733Z,7.67
2018-09-18T01:37:26.607Z,6.60
2018-09-18T01:39:55.085Z,7.07
2018-09-18T01:42:23.579Z,7.10
2018-09-18T01:44:52.065Z,8.00
2018-09-18T01:47:20.782Z,7.40
2018-09-18T01:49:49.266Z,7.40
2018-09-18T01:52:17.781Z,7.13
2018-09-18T01:54:46.243Z,7.40
2018-09-18T01:57:14.791Z,7.30
2018-09-18T01:59:43.281Z,7.47
2018-09-18T02:02:12.409Z,7.40
2018-09-18T02:04:41.299Z,6.97
2018-09-18T02:07:09.952Z,6.73
2018-09-18T02:09:38.885Z,7.53
2018-09-18T02:12:07.448Z,7.83
2018-09-18T02:14:36.020Z,7.10
2018-09-18T02:17:04.516Z,7.47
2018-09-18T02:19:33.007Z,8.07
2018-09-18T02:22:01.497Z,7.87
2018-09-18T02:24:30.021Z,8.10
2018-09-18T02:26:58.543Z,7.33
2018-09-18T02:29:27.046Z,8.10
2018-09-18T02:31:55.548Z,8.33
2018-09-18T02:34:24.413Z,7.87
2018-09-18T02:36:53.132Z,7.50
2018-09-18T02:39:21.793Z,7.60
2018-09-18T02:41:50.922Z,7.67
2018-09-18T02:44:19.713Z,7.70
2018-09-18T02:46:48.995Z,7.20
2018-09-18T02:49:18.039Z,6.93
2018-09-18T02:51:47.359Z,7.40
2018-09-18T02:54:16.208Z,6.87
2018-09-18T02:56:45.033Z,7.47
2018-09-18T02:59:13.514Z,7.20
2018-09-18T03:01:42.341Z,7.37
2018-09-18T03:04:11.305Z,7.10
2018-09-18T03:06:40.127Z,7.53
2018-09-18T03:09:10.474Z,6.57
2018-09-18T03:11:39.194Z,7.30
2018-09-18T03:14:08.385Z,7.13
2018-09-18T03:16:36.922Z,7.13
2018-09-18T03:19:05.525Z,6.80
2018-09-18T03:21:34.105Z,7.13
2018-09-18T03:24:02.626Z,7.67
2018-09-18T03:26:31.127Z,7.40
2018-09-18T03:28:59.618Z,7.43
2018-09-18T03:31:28.170Z,7.17
2018-09-18T03:33:56.647Z,6.13
2018-09-18T03:36:25.153Z,7.07
2018-09-18T03:38:53.633Z,7.20
2018-09-18T03:41:22.155Z,7.27
2018-09-18T03:43:50.677Z,6.90
2018-09-18T03:46:19.191Z,7.23
2018-09-18T03:48:47.704Z,7.17
2018-09-18T03:51:16.231Z,6.80
2018-09-18T03:53:44.814Z,6.57
2018-09-18T03:56:13.357Z,6.03
2018-09-18T03:58:42.191Z,6.23
2018-09-18T04:01:10.693Z,6.63
2018-09-18T04:03:39.165Z,6.07
2018-09-18T04:06:07.960Z,5.77
2018-09-18T04:08:36.430Z,6.47
2018-09-18T04:11:04.996Z,6.40
2018-09-18T04:13:33.456Z,6.13
2018-09-18T04:16:01.982Z,6.20
2018-09-18T04:18:30.557Z,6.60
2018-09-18T04:20:59.087Z,6.53
2018-09-18T04:23:27.581Z,5.93
2018-09-18T04:25:56.080Z,7.07
2018-09-18T04:28:24.578Z,7.00
2018-09-18T04:30:53.079Z,6.40
2018-09-18T04:33:21.548Z,6.13
2018-09-18T04:35:50.337Z,6.23
2018-09-18T04:38:18.873Z,6.77
2018-09-18T04:40:47.418Z,6.40
2018-09-18T04:43:15.912Z,6.87
2018-09-18T04:45:44.447Z,7.07
2018-09-18T04:48:12.945Z,7.30
2018-09-18T04:50:41.464Z,6.10
2018-09-18T04:53:09.962Z,6.30
2018-09-18T04:55:38.429Z,6.03
2018-09-18T04:58:06.961Z,6.80
2018-09-18T05:00:35.451Z,6.50
2018-09-18T05:03:03.920Z,6.37
2018-09-18T05:05:32.474Z,6.27
2018-09-18T05:08:01.034Z,7.10
2018-09-18T05:10:29.598Z,6.33
2018-09-18T05:12:58.108Z,5.90
2018-09-18T05:16:30.065Z,5.50
2018-09-18T05:18:58.596Z,5.77
2018-09-18T05:21:27.432Z,6.13
2018-09-18T05:23:55.898Z,5.67
2018-09-18T05:26:24.415Z,5.90
2018-09-18T05:28:52.936Z,6.40
2018-09-18T05:31:21.444Z,5.80
2018-09-18T05:33:50.019Z,5.80
2018-09-18T05:36:18.474Z,5.77
2018-09-18T05:38:47.012Z,6.80
2018-09-18T05:41:15.535Z,5.70
2018-09-18T05:43:44.030Z,6.13
2018-09-18T05:46:12.696Z,5.93
2018-09-18T05:48:41.465Z,6.13
2018-09-18T05:51:10.118Z,6.57
2018-09-18T05:53:38.605Z,6.93
2018-09-18T05:56:07.193Z,6.20
2018-09-18T05:58:35.777Z,6.07
2018-09-18T06:01:04.277Z,5.63
2018-09-18T06:03:32.768Z,5.80
2018-09-18T06:06:01.227Z,6.07
2018-09-18T06:08:29.715Z,5.47
2018-09-18T06:10:58.211Z,5.57
2018-09-18T06:13:26.759Z,5.97
2018-09-18T06:15:55.276Z,5.60
2018-09-18T06:18:23.765Z,5.00
2018-09-18T06:20:52.390Z,5.70
2018-09-18T06:23:20.895Z,5.33
2018-09-18T06:25:49.469Z,5.23
2018-09-18T06:28:18.027Z,5.20
2018-09-18T06:30:46.577Z,5.37
2018-09-18T06:33:15.436Z,6.20
2018-09-18T06:35:43.914Z,5.03
2018-09-18T06:38:12.431Z,5.00
2018-09-18T06:40:40.970Z,5.27
2018-09-18T06:43:09.558Z,5.50
2018-09-18T06:45:38.251Z,5.77
2018-09-18T06:48:06.879Z,5.43
2018-09-18T06:50:35.297Z,5.53
2018-09-18T06:53:03.797Z,5.90
2018-09-18T06:55:32.301Z,5.83
2018-09-18T06:58:00.755Z,6.10
2018-09-18T07:00:29.323Z,5.73
2018-09-18T07:02:57.870Z,6.00
2018-09-18T07:05:26.483Z,6.23
2018-09-18T07:07:54.977Z,6.50
2018-09-18T07:10:23.534Z,6.20
2018-09-18T07:12:52.068Z,6.83
2018-09-18T07:15:20.915Z,6.60
2018-09-18T07:17:49.480Z,6.67
2018-09-18T07:20:18.408Z,6.93
2018-09-18T07:22:46.932Z,6.60
2018-09-18T07:25:15.517Z,6.90
2018-09-18T07:27:44.042Z,7.07
2018-09-18T07:30:12.560Z,6.63
2018-09-18T07:32:41.063Z,6.43
2018-09-18T07:35:09.549Z,6.73
2018-09-18T07:37:38.092Z,6.00
2018-09-18T07:40:07.689Z,5.47
2018-09-18T07:42:36.196Z,5.53
2018-09-18T07:45:04.765Z,5.67
2018-09-18T07:47:33.322Z,5.30
2018-09-18T07:50:01.848Z,5.53
2018-09-18T07:52:30.368Z,4.57
2018-09-18T07:54:58.906Z,5.20
2018-09-18T07:57:27.395Z,4.70
2018-09-18T07:59:55.931Z,4.53
2018-09-18T08:02:24.489Z,4.43
2018-09-18T08:04:53.555Z,4.47
2018-09-18T08:07:22.181Z,4.50
2018-09-18T08:09:50.678Z,4.80
2018-09-18T08:12:19.235Z,4.07
2018-09-18T08:14:47.948Z,4.57
2018-09-18T08:17:16.815Z,4.67
2018-09-18T08:19:45.502Z,4.80
2018-09-18T08:22:14.139Z,4.37
2018-09-18T08:24:42.634Z,4.47
2018-09-18T08:27:11.245Z,4.37
2018-09-18T08:29:39.806Z,4.27
2018-09-18T08:32:08.353Z,4.77
2018-09-18T08:34:37.011Z,4.53
2018-09-18T08:37:05.566Z,5.03
2018-09-18T08:39:34.177Z,4.93
2018-09-18T08:42:02.727Z,4.90
2018-09-18T08:44:31.505Z,4.93
2018-09-18T08:47:00.427Z,4.53
2018-09-18T08:49:29.014Z,4.40
2018-09-18T08:51:57.614Z,5.30
2018-09-18T08:54:26.044Z,5.23
2018-09-18T08:56:55.598Z,4.90
2018-09-18T08:59:24.182Z,4.67
2018-09-18T09:01:53.049Z,4.33
2018-09-18T09:04:21.581Z,4.57
2018-09-18T09:06:50.287Z,4.57
2018-09-18T09:09:19.213Z,5.23
2018-09-18T09:11:47.706Z,5.03
2018-09-18T09:14:16.462Z,5.03
2018-09-18T09:16:44.982Z,5.10
2018-09-18T09:19:13.493Z,5.03
2018-09-18T09:21:42.022Z,4.73
2018-09-18T09:24:10.538Z,4.90
2018-09-18T09:26:39.231Z,4.90
2018-09-18T09:29:07.632Z,5.20
2018-09-18T09:31:36.539Z,4.97
2018-09-18T09:34:05.138Z,5.40
2018-09-18T09:36:33.731Z,4.80
2018-09-18T09:39:02.208Z,4.70
2018-09-18T09:41:30.752Z,4.40
2018-09-18T09:43:59.222Z,5.07
2018-09-18T09:46:27.754Z,3.90
2018-09-18T09:48:56.247Z,4.23
2018-09-18T09:51:24.847Z,4.33
2018-09-18T09:53:53.305Z,5.00
2018-09-18T09:56:21.923Z,4.63
2018-09-18T09:58:50.466Z,4.40
2018-09-18T10:01:24.339Z,4.70
2018-09-18T10:03:52.837Z,3.80
2018-09-18T10:06:21.682Z,3.90
2018-09-18T10:08:50.667Z,3.77
2018-09-18T10:11:19.208Z,3.63
2018-09-18T10:13:47.684Z,4.50
2018-09-18T10:16:16.216Z,4.20
2018-09-18T10:18:44.690Z,4.43
2018-09-18T10:21:13.176Z,3.70
2018-09-18T10:23:41.656Z,4.17
2018-09-18T10:26:10.287Z,4.50
2018-09-18T10:28:38.747Z,3.80
2018-09-18T10:31:07.311Z,3.70
2018-09-18T10:33:35.865Z,3.90
2018-09-18T10:36:04.392Z,4.00
2018-09-18T10:38:32.883Z,4.07
2018-09-18T10:41:01.751Z,4.47
2018-09-18T10:43:30.191Z,3.87
2018-09-18T10:45:58.744Z,3.57
2018-09-18T10:48:27.316Z,3.60
2018-09-18T10:50:55.818Z,3.67
2018-09-18T10:53:25.700Z,3.90
2018-09-18T10:55:54.259Z,4.20
2018-09-18T10:58:22.799Z,3.90
2018-09-18T11:00:51.404Z,3.60
2018-09-18T11:03:19.920Z,3.77
2018-09-18T11:05:48.493Z,3.63
2018-09-18T11:08:17.052Z,4.40
2018-09-18T11:10:45.508Z,3.70
2018-09-18T11:13:14.077Z,4.10
2018-09-18T11:15:42.939Z,4.30
2018-09-18T11:18:11.493Z,3.63
2018-09-18T11:20:40.109Z,3.57
2018-09-18T11:23:08.721Z,3.60
2018-09-18T11:25:37.227Z,4.40
2018-09-18T11:28:05.805Z,3.97
2018-09-18T11:30:34.503Z,3.27
2018-09-18T11:33:03.113Z,3.60
2018-09-18T11:35:31.610Z,3.60
2018-09-18T11:38:00.140Z,3.60
2018-09-18T11:40:28.601Z,4.03
2018-09-18T11:42:57.178Z,3.40
2018-09-18T11:45:26.065Z,3.70
2018-09-18T11:47:54.551Z,3.37
2018-09-18T11:50:23.082Z,3.40
2018-09-18T11:52:51.960Z,3.50
2018-09-18T11:55:20.708Z,3.70
2018-09-18T11:57:49.458Z,3.77
2018-09-18T12:00:18.195Z,3.70
2018-09-18T12:02:46.795Z,3.60
2018-09-18T12:05:15.591Z,4.00
2018-09-18T12:07:44.062Z,3.50
2018-09-18T12:10:12.609Z,3.50
2018-09-18T12:12:41.153Z,3.57
2018-09-18T12:15:09.911Z,3.07
2018-09-18T12:17:38.429Z,4.37
2018-09-18T12:20:07.245Z,4.10
2018-09-18T12:22:35.851Z,3.60
2018-09-18T12:25:04.614Z,3.80
2018-09-18T12:27:33.161Z,3.93
2018-09-18T12:30:02.189Z,3.40
2018-09-18T12:32:30.727Z,3.90
2018-09-18T12:34:59.202Z,3.23
2018-09-18T12:37:27.804Z,3.50
2018-09-18T12:39:56.754Z,3.60
2018-09-18T12:42:25.361Z,3.67
2018-09-18T12:44:53.768Z,3.27
2018-09-18T12:47:22.313Z,3.47
2018-09-18T12:49:51.087Z,3.00
2018-09-18T12:52:19.694Z,3.87
2018-09-18T12:54:48.271Z,3.80
2018-09-18T12:57:16.948Z,3.47
2018-09-18T12:59:45.436Z,3.63
2018-09-18T13:02:13.976Z,3.60
2018-09-18T13:04:42.600Z,3.87
2018-09-18T13:07:11.176Z,3.53
2018-09-18T13:09:39.854Z,3.73
2018-09-18T13:12:08.803Z,3.40
2018-09-18T13:14:37.327Z,3.70
2018-09-18T13:17:06.412Z,3.27
2018-09-18T13:19:34.881Z,3.50
2018-09-18T13:22:03.423Z,4.07
2018-09-18T13:24:31.978Z,3.77
2018-09-18T13:27:00.494Z,3.47
2018-09-18T13:29:29.094Z,3.93
2018-09-18T13:31:57.580Z,4.30
2018-09-18T13:34:26.112Z,4.00
2018-09-18T13:36:54.684Z,3.67
2018-09-18T13:39:23.321Z,4.50
2018-09-18T13:41:51.970Z,3.73
2018-09-18T13:44:21.106Z,3.97
2018-09-18T13:46:49.678Z,4.07
2018-09-18T13:49:18.246Z,3.70
2018-09-18T13:51:46.861Z,4.20
2018-09-18T13:54:16.448Z,4.40
2018-09-18T13:56:44.997Z,4.00
2018-09-18T13:59:13.705Z,4.20
2018-09-18T14:01:42.385Z,3.97
2018-09-18T14:04:10.902Z,4.23
2018-09-18T14:06:39.323Z,4.33
2018-09-18T14:09:08.879Z,4.00
2018-09-18T14:11:37.896Z,4.63
2018-09-18T14:14:06.944Z,4.03
2018-09-18T14:16:35.368Z,4.03
2018-09-18T14:19:03.951Z,4.67
2018-09-18T14:21:32.520Z,4.20
2018-09-18T14:24:01.058Z,4.30
2018-09-18T14:26:29.951Z,4.40
2018-09-18T14:28:58.317Z,4.43
2018-09-18T14:31:26.934Z,4.67
2018-09-18T14:33:55.492Z,4.67
2018-09-18T14:36:24.328Z,5.07
2018-09-18T14:38:52.861Z,4.60
2018-09-18T14:41:21.886Z,4.60
2018-09-18T14:43:50.413Z,4.47
2018-09-18T14:46:19.250Z,4.90
2018-09-18T14:48:48.089Z,4.63
2018-09-18T14:51:17.149Z,4.50
2018-09-18T14:53:45.587Z,4.80
2018-09-18T14:56:14.098Z,4.70
2018-09-18T15:00:12.024Z,4.40
2018-09-18T15:02:40.580Z,5.10
2018-09-18T15:05:09.072Z,4.23
2018-09-18T15:07:37.592Z,5.10
2018-09-18T15:10:07.232Z,4.43
2018-09-18T15:12:35.804Z,5.10
2018-09-18T15:15:04.392Z,4.80
2018-09-18T15:17:32.925Z,4.60
2018-09-18T15:20:01.419Z,4.20
2018-09-18T15:22:30.867Z,4.40
2018-09-18T15:24:59.369Z,4.67
2018-09-18T15:27:27.894Z,3.83
2018-09-18T15:29:56.427Z,4.10
2018-09-18T15:32:24.988Z,3.83
2018-09-18T15:34:53.532Z,4.80
2018-09-18T15:37:22.086Z,4.13
2018-09-18T15:39:50.747Z,4.43
2018-09-18T15:42:19.626Z,4.50
2018-09-18T15:44:48.152Z,4.07
2018-09-18T15:47:16.744Z,4.30
2018-09-18T15:49:45.315Z,3.70
2018-09-18T15:52:13.957Z,3.57
2018-09-18T15:54:42.427Z,4.07
2018-09-18T15:57:10.925Z,4.17
2018-09-18T15:59:39.475Z,4.13
2018-09-18T16:02:08.727Z,4.20
2018-09-18T16:04:37.505Z,3.87
2018-09-18T16:07:06.361Z,4.17
2018-09-18T16:09:35.318Z,4.10
2018-09-18T16:12:03.908Z,4.30
2018-09-18T16:14:32.534Z,4.63
2018-09-18T16:17:02.905Z,4.17
2018-09-18T16:19:31.660Z,4.37
2018-09-18T16:22:00.212Z,4.30
2018-09-18T16:24:28.993Z,3.93
2018-09-18T16:26:57.519Z,3.83
2018-09-18T16:29:26.124Z,4.43
2018-09-18T16:31:54.656Z,4.50
2018-09-18T16:34:23.418Z,3.57
2018-09-18T16:36:52.407Z,4.17
2018-09-18T16:39:20.889Z,4.07
2018-09-18T16:41:49.468Z,4.70
2018-09-18T16:44:17.956Z,4.57
2018-09-18T16:46:46.595Z,5.57
2018-09-18T16:49:15.090Z,4.43
2018-09-18T16:51:43.701Z,4.97
2018-09-18T16:54:12.229Z,4.10
2018-09-18T16:56:40.802Z,4.00
2018-09-18T16:59:09.458Z,4.63
2018-09-18T17:01:38.085Z,4.57
2018-09-18T17:04:06.640Z,4.13
2018-09-18T17:06:35.285Z,3.90
2018-09-18T17:09:04.600Z,4.13
2018-09-18T17:11:33.504Z,5.03
2018-09-18T17:14:02.320Z,4.40
2018-09-18T17:16:30.926Z,4.37
2018-09-18T17:18:59.463Z,4.27
2018-09-18T17:21:28.062Z,4.03
2018-09-18T17:23:56.644Z,4.07
2018-09-18T17:26:25.223Z,4.23
2018-09-18T17:28:54.228Z,3.70
2018-09-18T17:31:22.726Z,4.30
2018-09-18T17:33:51.261Z,3.97
2018-09-18T17:36:19.813Z,3.57
2018-09-18T17:38:48.337Z,3.53
2018-09-18T17:41:16.873Z,3.60
2018-09-18T17:43:45.431Z,3.67
2018-09-18T17:46:13.950Z,3.90
2018-09-18T17:48:42.474Z,3.83
2018-09-18T17:51:11.075Z,3.93
2018-09-18T17:53:39.656Z,4.27
2018-09-18T17:56:08.325Z,3.77
2018-09-18T17:58:37.857Z,3.67
2018-09-18T18:01:06.462Z,4.00
2018-09-18T18:03:34.966Z,3.80
2018-09-18T18:06:03.478Z,3.77
2018-09-18T18:08:32.037Z,3.83
2018-09-18T18:11:00.660Z,3.10
2018-09-18T18:13:30.131Z,3.87
2018-09-18T18:16:00.712Z,3.70
2018-09-18T18:18:30.401Z,3.53
2018-09-18T18:20:59.200Z,3.83
2018-09-18T18:23:29.144Z,3.90
2018-09-18T18:25:57.817Z,4.00
2018-09-18T18:28:26.410Z,3.80
2018-09-18T18:30:55.206Z,3.90
2018-09-18T18:33:23.804Z,3.63
2018-09-18T18:35:53.124Z,3.47
2018-09-18T18:38:21.664Z,3.70
2018-09-18T18:40:50.214Z,4.27
2018-09-18T18:43:18.986Z,3.67
2018-09-18T18:45:47.483Z,4.00
2018-09-18T18:48:16.167Z,4.53
2018-09-18T18:50:44.631Z,3.70
2018-09-18T18:53:13.162Z,4.07
2018-09-18T18:55:41.666Z,4.40
2018-09-18T18:58:10.445Z,4.00
2018-09-18T19:00:39.078Z,4.37
2018-09-18T19:03:07.721Z,3.57
2018-09-18T19:05:36.245Z,4.23
2018-09-18T19:08:05.027Z,4.27
2018-09-18T19:10:33.565Z,4.27
2018-09-18T19:13:02.101Z,3.80
2018-09-18T19:15:30.596Z,3.40
2018-09-18T19:17:59.186Z,3.90
2018-09-18T19:20:27.759Z,3.70
2018-09-18T19:22:56.303Z,3.60
2018-09-18T19:25:24.954Z,4.57
2018-09-18T19:27:53.533Z,4.17
2018-09-18T19:30:22.093Z,3.97
2018-09-18T19:32:50.777Z,4.40
2018-09-18T19:35:19.343Z,3.70
2018-09-18T19:37:47.976Z,4.07
2018-09-18T19:40:16.917Z,3.90
2018-09-18T19:42:45.956Z,3.93
2018-09-18T19:45:14.489Z,3.93
2018-09-18T19:47:43.067Z,3.50
2018-09-18T19:50:16.651Z,4.50
2018-09-18T19:52:46.392Z,4.10
2018-09-18T19:55:15.607Z,4.10
2018-09-18T19:57:44.205Z,4.20
2018-09-18T20:00:13.281Z,4.30
2018-09-18T20:02:42.318Z,4.00
2018-09-18T20:05:11.443Z,4.13
2018-09-18T20:07:40.002Z,4.17
2018-09-18T20:10:08.680Z,4.07
2018-09-18T20:12:37.528Z,4.53
2018-09-18T20:15:06.170Z,4.00
2018-09-18T20:17:34.746Z,4.57
2018-09-18T20:20:03.807Z,4.00
2018-09-18T20:22:32.460Z,3.90
2018-09-18T20:25:01.001Z,4.07
2018-09-18T20:27:29.621Z,3.80
2018-09-18T20:29:58.171Z,3.87
2018-09-18T20:32:26.773Z,4.13
2018-09-18T20:34:55.296Z,4.10
2018-09-18T20:37:23.872Z,4.27
2018-09-18T20:39:52.363Z,3.93
2018-09-18T20:42:20.858Z,3.87
2018-09-18T20:44:49.417Z,3.73
2018-09-18T20:47:17.949Z,4.27
2018-09-18T20:49:46.465Z,4.23
2018-09-18T20:52:15.101Z,3.73
2018-09-18T20:54:43.714Z,3.90
2018-09-18T20:57:12.488Z,3.60
2018-09-18T20:59:43.295Z,3.50
2018-09-18T21:02:11.897Z,3.60
2018-09-18T21:04:40.375Z,3.80
2018-09-18T21:07:09.049Z,3.80
2018-09-18T21:09:37.617Z,3.00
2018-09-18T21:12:06.196Z,3.30
2018-09-18T21:14:34.743Z,3.33
2018-09-18T21:17:03.353Z,3.27
2018-09-18T21:19:31.907Z,2.87
2018-09-18T21:22:00.464Z,3.40
2018-09-18T21:24:28.972Z,3.20
2018-09-18T21:26:57.512Z,3.40
2018-09-18T21:29:26.343Z,4.27
2018-09-18T21:31:55.136Z,3.00
2018-09-18T21:34:23.717Z,3.10
2018-09-18T21:36:52.562Z,3.50
2018-09-18T21:39:21.180Z,3.30
2018-09-18T21:41:49.705Z,3.20
2018-09-18T21:44:18.485Z,4.07
2018-09-18T21:46:47.019Z,3.73
2018-09-18T21:49:15.486Z,2.77
2018-09-18T21:51:43.965Z,3.30
2018-09-18T21:54:12.438Z,3.30
2018-09-18T21:56:40.972Z,3.43
2018-09-18T21:59:09.538Z,3.03
2018-09-18T22:01:38.044Z,3.40
2018-09-18T22:04:06.563Z,3.33
2018-09-18T22:06:35.186Z,3.53
2018-09-18T22:09:04.140Z,3.20
2018-09-18T22:11:32.889Z,3.27
2018-09-18T22:14:01.339Z,3.10
2018-09-18T22:16:29.868Z,3.20
2018-09-18T22:18:58.373Z,3.57
2018-09-18T22:21:26.863Z,3.30
2018-09-18T22:23:55.350Z,3.30
2018-09-18T22:26:23.851Z,3.60
2018-09-18T22:28:52.335Z,3.37
2018-09-18T22:31:20.943Z,3.50
2018-09-18T22:33:49.913Z,3.20
2018-09-18T22:36:18.438Z,3.67
2018-09-18T22:38:46.965Z,3.40
2018-09-18T22:41:15.506Z,3.60
2018-09-18T22:43:43.988Z,3.57
2018-09-18T22:46:12.482Z,3.87
2018-09-18T22:48:41.035Z,3.70
2018-09-18T22:51:09.545Z,3.73
2018-09-18T22:53:38.073Z,3.70
2018-09-18T22:56:06.575Z,3.43
2018-09-18T22:58:35.017Z,3.90
2018-09-18T23:01:03.508Z,3.73
2018-09-18T23:03:31.990Z,3.73
2018-09-18T23:06:00.499Z,3.23
2018-09-18T23:08:28.985Z,4.13
2018-09-18T23:10:57.458Z,4.33
2018-09-18T23:13:25.916Z,3.67
2018-09-18T23:15:54.416Z,3.87
2018-09-18T23:18:22.881Z,3.87
2018-09-18T23:20:51.365Z,3.97
2018-09-18T23:23:19.869Z,3.37
2018-09-18T23:25:48.356Z,3.77
2018-09-18T23:28:16.824Z,3.77
2018-09-18T23:30:45.357Z,4.07
2018-09-18T23:33:13.837Z,3.57
2018-09-18T23:35:42.589Z,4.53
2018-09-18T23:38:11.107Z,4.03
2018-09-18T23:40:39.584Z,4.07
2018-09-18T23:43:08.088Z,3.90
2018-09-18T23:45:36.581Z,3.60
2018-09-18T23:48:05.044Z,4.47
2018-09-18T23:50:33.533Z,3.97
2018-09-18T23:53:02.028Z,4.30
2018-09-18T23:55:30.483Z,3.50
2018-09-18T23:57:59.050Z,3.70
